sensor_id;sensor_type;location;lat;lon;timestamp;P1;durP1;ratioP1;P2;durP2;ratioP2
5343;SDS011;2694;48.954;8.928;2023-02-26T00:01:25;4.20;;;0.90;;
5343;SDS011;2694;48.954;8.928;2023-02-26T00:03:55;1.67;;;0.70;;
5343;SDS011;2694;48.954;8.928;2023-02-26T00:06:23;2.97;;;0.68;;
5343;SDS011;2694;48.954;8.928;2023-02-26T00:08:51;5.47;;;0.90;;
5343;SDS011;2694;48.954;8.928;2023-02-26T00:11:18;3.50;;;0.70;;
5343;SDS011;2694;48.954;8.928;2023-02-26T00:13:45;1.50;;;0.70;;
5343;SDS011;2694;48.954;8.928;2023-02-26T00:16:14;2.92;;;0.80;;
5343;SDS011;2694;48.954;8.928;2023-02-26T00:18:49;2.67;;;0.80;;
5343;SDS011;2694;48.954;8.928;2023-02-26T00:21:18;2.63;;;0.90;;
5343;SDS011;2694;48.954;8.928;2023-02-26T00:23:47;2.27;;;0.80;;
5343;SDS011;2694;48.954;8.928;2023-02-26T00:26:14;2.23;;;0.80;;
5343;SDS011;2694;48.954;8.928;2023-02-26T00:28:41;4.00;;;0.80;;
5343;SDS011;2694;48.954;8.928;2023-02-26T00:31:09;4.10;;;0.90;;
5343;SDS011;2694;48.954;8.928;2023-02-26T00:33:37;3.35;;;1.10;;
5343;SDS011;2694;48.954;8.928;2023-02-26T00:36:08;2.85;;;0.90;;
5343;SDS011;2694;48.954;8.928;2023-02-26T00:38:45;2.53;;;0.60;;
5343;SDS011;2694;48.954;8.928;2023-02-26T00:41:21;3.50;;;1.10;;
5343;SDS011;2694;48.954;8.928;2023-02-26T00:43:48;1.73;;;0.90;;
5343;SDS011;2694;48.954;8.928;2023-02-26T00:46:17;1.50;;;0.70;;
5343;SDS011;2694;48.954;8.928;2023-02-26T00:48:54;1.55;;;0.90;;
5343;SDS011;2694;48.954;8.928;2023-02-26T00:51:29;4.60;;;1.10;;
5343;SDS011;2694;48.954;8.928;2023-02-26T00:54:01;1.50;;;0.80;;
5343;SDS011;2694;48.954;8.928;2023-02-26T00:56:32;2.58;;;0.60;;
5343;SDS011;2694;48.954;8.928;2023-02-26T00:58:59;4.32;;;0.90;;
5343;SDS011;2694;48.954;8.928;2023-02-26T01:01:26;3.20;;;0.70;;
5343;SDS011;2694;48.954;8.928;2023-02-26T01:03:53;2.30;;;0.90;;
5343;SDS011;2694;48.954;8.928;2023-02-26T01:06:20;3.40;;;1.02;;
5343;SDS011;2694;48.954;8.928;2023-02-26T01:08:53;2.45;;;0.77;;
5343;SDS011;2694;48.954;8.928;2023-02-26T01:11:26;3.38;;;1.00;;
5343;SDS011;2694;48.954;8.928;2023-02-26T01:13:53;2.47;;;1.13;;
5343;SDS011;2694;48.954;8.928;2023-02-26T01:16:22;1.60;;;1.00;;
5343;SDS011;2694;48.954;8.928;2023-02-26T01:18:53;2.40;;;1.00;;
5343;SDS011;2694;48.954;8.928;2023-02-26T01:21:27;2.77;;;1.20;;
5343;SDS011;2694;48.954;8.928;2023-02-26T01:23:57;4.32;;;1.13;;
5343;SDS011;2694;48.954;8.928;2023-02-26T01:26:29;2.60;;;0.80;;
5343;SDS011;2694;48.954;8.928;2023-02-26T01:28:56;5.63;;;1.40;;
5343;SDS011;2694;48.954;8.928;2023-02-26T01:31:32;4.20;;;0.80;;
5343;SDS011;2694;48.954;8.928;2023-02-26T01:34:05;2.00;;;0.80;;
5343;SDS011;2694;48.954;8.928;2023-02-26T01:36:39;1.50;;;0.73;;
5343;SDS011;2694;48.954;8.928;2023-02-26T01:39:11;2.10;;;0.70;;
5343;SDS011;2694;48.954;8.928;2023-02-26T01:41:47;3.22;;;0.98;;
5343;SDS011;2694;48.954;8.928;2023-02-26T01:44:18;2.50;;;0.80;;
5343;SDS011;2694;48.954;8.928;2023-02-26T01:46:55;2.40;;;0.80;;
5343;SDS011;2694;48.954;8.928;2023-02-26T01:49:36;3.30;;;1.20;;
5343;SDS011;2694;48.954;8.928;2023-02-26T01:52:04;3.25;;;1.00;;
5343;SDS011;2694;48.954;8.928;2023-02-26T01:54:32;2.70;;;0.80;;
5343;SDS011;2694;48.954;8.928;2023-02-26T01:57:01;2.70;;;0.97;;
5343;SDS011;2694;48.954;8.928;2023-02-26T01:59:32;3.28;;;0.90;;
5343;SDS011;2694;48.954;8.928;2023-02-26T02:02:03;3.05;;;1.10;;
5343;SDS011;2694;48.954;8.928;2023-02-26T02:04:32;2.60;;;1.30;;
5343;SDS011;2694;48.954;8.928;2023-02-26T02:06:59;3.50;;;1.20;;
5343;SDS011;2694;48.954;8.928;2023-02-26T02:09:26;3.00;;;1.20;;
5343;SDS011;2694;48.954;8.928;2023-02-26T02:11:59;3.00;;;1.00;;
5343;SDS011;2694;48.954;8.928;2023-02-26T02:14:41;3.60;;;1.08;;
5343;SDS011;2694;48.954;8.928;2023-02-26T02:17:18;3.70;;;1.50;;
5343;SDS011;2694;48.954;8.928;2023-02-26T02:22:50;4.57;;;1.20;;
5343;SDS011;2694;48.954;8.928;2023-02-26T02:25:39;4.93;;;1.13;;
5343;SDS011;2694;48.954;8.928;2023-02-26T02:28:32;3.95;;;1.23;;
5343;SDS011;2694;48.954;8.928;2023-02-26T02:31:06;1.50;;;0.90;;
5343;SDS011;2694;48.954;8.928;2023-02-26T02:33:40;4.53;;;1.33;;
5343;SDS011;2694;48.954;8.928;2023-02-26T02:36:09;2.80;;;1.00;;
5343;SDS011;2694;48.954;8.928;2023-02-26T02:38:42;3.40;;;1.20;;
5343;SDS011;2694;48.954;8.928;2023-02-26T02:41:14;4.82;;;1.20;;
5343;SDS011;2694;48.954;8.928;2023-02-26T02:43:44;4.47;;;1.10;;
5343;SDS011;2694;48.954;8.928;2023-02-26T02:46:15;2.40;;;1.20;;
5343;SDS011;2694;48.954;8.928;2023-02-26T02:48:46;7.27;;;1.10;;
5343;SDS011;2694;48.954;8.928;2023-02-26T02:51:18;3.75;;;1.13;;
5343;SDS011;2694;48.954;8.928;2023-02-26T02:53:50;2.60;;;1.20;;
5343;SDS011;2694;48.954;8.928;2023-02-26T02:56:22;2.30;;;1.20;;
5343;SDS011;2694;48.954;8.928;2023-02-26T02:58:52;2.70;;;1.10;;
5343;SDS011;2694;48.954;8.928;2023-02-26T03:01:29;2.75;;;1.40;;
5343;SDS011;2694;48.954;8.928;2023-02-26T03:04:00;2.58;;;0.90;;
5343;SDS011;2694;48.954;8.928;2023-02-26T03:06:31;5.40;;;0.88;;
5343;SDS011;2694;48.954;8.928;2023-02-26T03:08:59;3.00;;;1.05;;
5343;SDS011;2694;48.954;8.928;2023-02-26T03:11:28;4.30;;;1.55;;
5343;SDS011;2694;48.954;8.928;2023-02-26T03:13:55;3.67;;;1.80;;
5343;SDS011;2694;48.954;8.928;2023-02-26T03:16:37;3.58;;;1.33;;
5343;SDS011;2694;48.954;8.928;2023-02-26T03:19:17;4.88;;;1.45;;
5343;SDS011;2694;48.954;8.928;2023-02-26T03:21:52;2.80;;;1.40;;
5343;SDS011;2694;48.954;8.928;2023-02-26T03:24:26;4.32;;;1.48;;
5343;SDS011;2694;48.954;8.928;2023-02-26T03:26:57;3.75;;;1.60;;
5343;SDS011;2694;48.954;8.928;2023-02-26T03:29:32;4.70;;;1.60;;
5343;SDS011;2694;48.954;8.928;2023-02-26T03:32:06;3.55;;;1.40;;
5343;SDS011;2694;48.954;8.928;2023-02-26T03:34:38;4.25;;;1.70;;
5343;SDS011;2694;48.954;8.928;2023-02-26T03:37:10;4.10;;;1.80;;
5343;SDS011;2694;48.954;8.928;2023-02-26T03:39:44;2.30;;;1.50;;
5343;SDS011;2694;48.954;8.928;2023-02-26T03:42:16;2.88;;;1.20;;
5343;SDS011;2694;48.954;8.928;2023-02-26T03:44:52;2.20;;;1.08;;
5343;SDS011;2694;48.954;8.928;2023-02-26T03:47:23;5.30;;;1.30;;
5343;SDS011;2694;48.954;8.928;2023-02-26T03:49:51;3.10;;;1.30;;
5343;SDS011;2694;48.954;8.928;2023-02-26T03:52:22;3.60;;;1.90;;
5343;SDS011;2694;48.954;8.928;2023-02-26T03:54:54;4.18;;;1.40;;
5343;SDS011;2694;48.954;8.928;2023-02-26T03:57:24;2.92;;;1.00;;
5343;SDS011;2694;48.954;8.928;2023-02-26T03:59:51;3.20;;;1.42;;
5343;SDS011;2694;48.954;8.928;2023-02-26T04:02:19;3.95;;;1.77;;
5343;SDS011;2694;48.954;8.928;2023-02-26T04:04:52;8.68;;;3.58;;
5343;SDS011;2694;48.954;8.928;2023-02-26T04:07:24;7.90;;;2.20;;
5343;SDS011;2694;48.954;8.928;2023-02-26T04:09:51;3.43;;;1.80;;
5343;SDS011;2694;48.954;8.928;2023-02-26T04:12:19;3.65;;;1.63;;
5343;SDS011;2694;48.954;8.928;2023-02-26T04:14:47;3.70;;;1.55;;
5343;SDS011;2694;48.954;8.928;2023-02-26T04:17:14;5.28;;;1.20;;
5343;SDS011;2694;48.954;8.928;2023-02-26T04:19:42;7.05;;;1.60;;
5343;SDS011;2694;48.954;8.928;2023-02-26T04:22:10;3.20;;;1.50;;
5343;SDS011;2694;48.954;8.928;2023-02-26T04:24:37;3.65;;;1.17;;
5343;SDS011;2694;48.954;8.928;2023-02-26T04:27:04;2.75;;;1.27;;
5343;SDS011;2694;48.954;8.928;2023-02-26T04:29:31;2.45;;;1.10;;
5343;SDS011;2694;48.954;8.928;2023-02-26T04:31:58;1.60;;;0.90;;
5343;SDS011;2694;48.954;8.928;2023-02-26T04:34:25;2.80;;;1.20;;
5343;SDS011;2694;48.954;8.928;2023-02-26T04:36:52;4.03;;;1.10;;
5343;SDS011;2694;48.954;8.928;2023-02-26T04:39:20;5.72;;;1.15;;
5343;SDS011;2694;48.954;8.928;2023-02-26T04:41:48;2.85;;;1.13;;
5343;SDS011;2694;48.954;8.928;2023-02-26T04:44:15;4.68;;;1.30;;
5343;SDS011;2694;48.954;8.928;2023-02-26T04:46:42;6.20;;;1.10;;
5343;SDS011;2694;48.954;8.928;2023-02-26T04:49:09;3.35;;;1.10;;
5343;SDS011;2694;48.954;8.928;2023-02-26T04:51:36;3.03;;;1.13;;
5343;SDS011;2694;48.954;8.928;2023-02-26T04:54:03;3.05;;;1.00;;
5343;SDS011;2694;48.954;8.928;2023-02-26T04:56:32;1.67;;;1.10;;
5343;SDS011;2694;48.954;8.928;2023-02-26T04:58:58;2.90;;;1.20;;
5343;SDS011;2694;48.954;8.928;2023-02-26T05:01:25;2.70;;;1.25;;
5343;SDS011;2694;48.954;8.928;2023-02-26T05:03:52;2.97;;;1.10;;
5343;SDS011;2694;48.954;8.928;2023-02-26T05:06:19;4.20;;;1.20;;
5343;SDS011;2694;48.954;8.928;2023-02-26T05:08:46;4.00;;;1.50;;
5343;SDS011;2694;48.954;8.928;2023-02-26T05:11:13;2.50;;;1.50;;
5343;SDS011;2694;48.954;8.928;2023-02-26T05:13:41;4.68;;;1.60;;
5343;SDS011;2694;48.954;8.928;2023-02-26T05:16:08;4.80;;;1.70;;
5343;SDS011;2694;48.954;8.928;2023-02-26T05:18:35;5.10;;;1.60;;
5343;SDS011;2694;48.954;8.928;2023-02-26T05:21:03;5.72;;;1.70;;
5343;SDS011;2694;48.954;8.928;2023-02-26T05:23:30;3.95;;;1.70;;
5343;SDS011;2694;48.954;8.928;2023-02-26T05:25:58;3.50;;;1.45;;
5343;SDS011;2694;48.954;8.928;2023-02-26T05:28:25;4.85;;;1.50;;
5343;SDS011;2694;48.954;8.928;2023-02-26T05:30:54;3.20;;;1.30;;
5343;SDS011;2694;48.954;8.928;2023-02-26T05:33:21;2.00;;;1.40;;
5343;SDS011;2694;48.954;8.928;2023-02-26T05:35:48;4.82;;;1.60;;
5343;SDS011;2694;48.954;8.928;2023-02-26T05:38:15;5.03;;;2.25;;
5343;SDS011;2694;48.954;8.928;2023-02-26T05:40:42;5.18;;;1.98;;
5343;SDS011;2694;48.954;8.928;2023-02-26T05:43:09;4.85;;;1.75;;
5343;SDS011;2694;48.954;8.928;2023-02-26T05:45:36;3.70;;;2.00;;
5343;SDS011;2694;48.954;8.928;2023-02-26T05:48:04;3.55;;;2.17;;
5343;SDS011;2694;48.954;8.928;2023-02-26T05:50:31;7.50;;;2.40;;
5343;SDS011;2694;48.954;8.928;2023-02-26T05:52:58;6.35;;;2.65;;
5343;SDS011;2694;48.954;8.928;2023-02-26T05:55:25;4.93;;;2.75;;
5343;SDS011;2694;48.954;8.928;2023-02-26T05:57:52;6.43;;;3.00;;
5343;SDS011;2694;48.954;8.928;2023-02-26T06:00:19;5.00;;;3.03;;
5343;SDS011;2694;48.954;8.928;2023-02-26T06:02:47;4.90;;;2.70;;
5343;SDS011;2694;48.954;8.928;2023-02-26T06:05:15;6.80;;;3.33;;
5343;SDS011;2694;48.954;8.928;2023-02-26T06:07:42;7.20;;;3.65;;
5343;SDS011;2694;48.954;8.928;2023-02-26T06:10:10;11.10;;;4.00;;
5343;SDS011;2694;48.954;8.928;2023-02-26T06:12:37;5.90;;;3.40;;
5343;SDS011;2694;48.954;8.928;2023-02-26T06:15:05;5.70;;;4.20;;
5343;SDS011;2694;48.954;8.928;2023-02-26T06:17:33;8.05;;;3.97;;
5343;SDS011;2694;48.954;8.928;2023-02-26T06:20:00;7.00;;;3.50;;
5343;SDS011;2694;48.954;8.928;2023-02-26T06:22:29;4.22;;;2.60;;
5343;SDS011;2694;48.954;8.928;2023-02-26T06:24:56;5.60;;;2.22;;
5343;SDS011;2694;48.954;8.928;2023-02-26T06:27:23;4.20;;;2.20;;
5343;SDS011;2694;48.954;8.928;2023-02-26T06:29:50;2.20;;;1.70;;
5343;SDS011;2694;48.954;8.928;2023-02-26T06:32:17;5.32;;;1.20;;
5343;SDS011;2694;48.954;8.928;2023-02-26T06:34:44;4.90;;;1.30;;
5343;SDS011;2694;48.954;8.928;2023-02-26T06:37:11;4.70;;;1.30;;
5343;SDS011;2694;48.954;8.928;2023-02-26T06:39:39;2.83;;;1.15;;
5343;SDS011;2694;48.954;8.928;2023-02-26T06:42:07;2.08;;;1.10;;
5343;SDS011;2694;48.954;8.928;2023-02-26T06:44:34;3.40;;;1.05;;
5343;SDS011;2694;48.954;8.928;2023-02-26T06:47:00;5.15;;;1.40;;
5343;SDS011;2694;48.954;8.928;2023-02-26T06:49:27;4.78;;;1.40;;
5343;SDS011;2694;48.954;8.928;2023-02-26T06:51:54;3.50;;;1.10;;
5343;SDS011;2694;48.954;8.928;2023-02-26T06:54:21;2.67;;;1.60;;
5343;SDS011;2694;48.954;8.928;2023-02-26T06:56:49;5.50;;;1.15;;
5343;SDS011;2694;48.954;8.928;2023-02-26T06:59:16;4.72;;;1.40;;
5343;SDS011;2694;48.954;8.928;2023-02-26T07:01:43;3.15;;;1.27;;
5343;SDS011;2694;48.954;8.928;2023-02-26T07:04:10;3.42;;;1.00;;
5343;SDS011;2694;48.954;8.928;2023-02-26T07:06:37;3.10;;;1.30;;
5343;SDS011;2694;48.954;8.928;2023-02-26T07:09:04;4.40;;;1.20;;
5343;SDS011;2694;48.954;8.928;2023-02-26T07:11:31;4.22;;;1.20;;
5343;SDS011;2694;48.954;8.928;2023-02-26T07:13:59;3.90;;;1.10;;
5343;SDS011;2694;48.954;8.928;2023-02-26T07:16:26;3.40;;;1.10;;
5343;SDS011;2694;48.954;8.928;2023-02-26T07:18:53;4.22;;;0.80;;
5343;SDS011;2694;48.954;8.928;2023-02-26T07:21:20;7.90;;;1.10;;
5343;SDS011;2694;48.954;8.928;2023-02-26T07:23:47;3.20;;;1.10;;
5343;SDS011;2694;48.954;8.928;2023-02-26T07:26:13;6.53;;;0.90;;
5343;SDS011;2694;48.954;8.928;2023-02-26T07:28:41;2.72;;;1.10;;
5343;SDS011;2694;48.954;8.928;2023-02-26T07:31:09;4.60;;;1.10;;
5343;SDS011;2694;48.954;8.928;2023-02-26T07:33:38;4.63;;;1.00;;
5343;SDS011;2694;48.954;8.928;2023-02-26T07:36:05;3.80;;;0.80;;
5343;SDS011;2694;48.954;8.928;2023-02-26T07:38:33;4.93;;;1.48;;
5343;SDS011;2694;48.954;8.928;2023-02-26T07:40:59;3.15;;;1.13;;
5343;SDS011;2694;48.954;8.928;2023-02-26T07:43:26;7.90;;;1.40;;
5343;SDS011;2694;48.954;8.928;2023-02-26T07:45:53;5.20;;;1.10;;
5343;SDS011;2694;48.954;8.928;2023-02-26T07:48:22;4.70;;;1.20;;
5343;SDS011;2694;48.954;8.928;2023-02-26T07:50:50;6.60;;;1.20;;
5343;SDS011;2694;48.954;8.928;2023-02-26T07:53:18;2.88;;;1.20;;
5343;SDS011;2694;48.954;8.928;2023-02-26T07:55:45;7.28;;;1.50;;
5343;SDS011;2694;48.954;8.928;2023-02-26T07:58:12;5.35;;;1.10;;
5343;SDS011;2694;48.954;8.928;2023-02-26T08:00:39;4.60;;;1.20;;
5343;SDS011;2694;48.954;8.928;2023-02-26T08:03:06;3.40;;;1.30;;
5343;SDS011;2694;48.954;8.928;2023-02-26T08:05:34;7.40;;;1.30;;
5343;SDS011;2694;48.954;8.928;2023-02-26T08:08:01;1.88;;;0.90;;
5343;SDS011;2694;48.954;8.928;2023-02-26T08:10:29;2.55;;;0.80;;
5343;SDS011;2694;48.954;8.928;2023-02-26T08:12:56;2.33;;;0.90;;
5343;SDS011;2694;48.954;8.928;2023-02-26T08:15:22;5.80;;;2.00;;
5343;SDS011;2694;48.954;8.928;2023-02-26T08:17:50;3.03;;;0.80;;
5343;SDS011;2694;48.954;8.928;2023-02-26T08:20:17;3.22;;;1.05;;
5343;SDS011;2694;48.954;8.928;2023-02-26T08:22:46;2.47;;;0.73;;
5343;SDS011;2694;48.954;8.928;2023-02-26T08:25:13;2.80;;;0.90;;
5343;SDS011;2694;48.954;8.928;2023-02-26T08:27:40;2.70;;;0.95;;
5343;SDS011;2694;48.954;8.928;2023-02-26T08:30:07;2.30;;;0.90;;
5343;SDS011;2694;48.954;8.928;2023-02-26T08:32:35;2.60;;;0.80;;
5343;SDS011;2694;48.954;8.928;2023-02-26T08:35:03;2.58;;;0.90;;
5343;SDS011;2694;48.954;8.928;2023-02-26T08:37:31;2.80;;;1.20;;
5343;SDS011;2694;48.954;8.928;2023-02-26T08:39:59;2.17;;;0.90;;
5343;SDS011;2694;48.954;8.928;2023-02-26T08:42:26;6.63;;;1.02;;
5343;SDS011;2694;48.954;8.928;2023-02-26T08:44:53;3.22;;;0.90;;
5343;SDS011;2694;48.954;8.928;2023-02-26T08:47:20;3.00;;;0.63;;
5343;SDS011;2694;48.954;8.928;2023-02-26T08:49:50;2.50;;;0.90;;
5343;SDS011;2694;48.954;8.928;2023-02-26T08:52:17;2.03;;;1.00;;
5343;SDS011;2694;48.954;8.928;2023-02-26T08:54:44;3.93;;;1.40;;
5343;SDS011;2694;48.954;8.928;2023-02-26T08:57:12;3.95;;;0.90;;
5343;SDS011;2694;48.954;8.928;2023-02-26T08:59:39;3.15;;;1.17;;
5343;SDS011;2694;48.954;8.928;2023-02-26T09:02:06;1.42;;;0.77;;
5343;SDS011;2694;48.954;8.928;2023-02-26T09:04:35;3.20;;;1.00;;
5343;SDS011;2694;48.954;8.928;2023-02-26T09:07:02;1.92;;;0.68;;
5343;SDS011;2694;48.954;8.928;2023-02-26T09:09:31;2.88;;;0.90;;
5343;SDS011;2694;48.954;8.928;2023-02-26T09:11:59;4.27;;;0.87;;
5343;SDS011;2694;48.954;8.928;2023-02-26T09:14:27;1.73;;;0.90;;
5343;SDS011;2694;48.954;8.928;2023-02-26T09:16:54;2.80;;;0.80;;
5343;SDS011;2694;48.954;8.928;2023-02-26T09:19:21;2.30;;;1.00;;
5343;SDS011;2694;48.954;8.928;2023-02-26T09:21:48;3.53;;;1.00;;
5343;SDS011;2694;48.954;8.928;2023-02-26T09:24:15;2.72;;;1.00;;
5343;SDS011;2694;48.954;8.928;2023-02-26T09:26:42;4.07;;;1.10;;
5343;SDS011;2694;48.954;8.928;2023-02-26T09:29:09;7.10;;;1.10;;
5343;SDS011;2694;48.954;8.928;2023-02-26T09:31:38;3.53;;;1.17;;
5343;SDS011;2694;48.954;8.928;2023-02-26T09:34:05;3.65;;;0.90;;
5343;SDS011;2694;48.954;8.928;2023-02-26T09:36:32;2.70;;;0.95;;
5343;SDS011;2694;48.954;8.928;2023-02-26T09:38:59;2.70;;;1.30;;
5343;SDS011;2694;48.954;8.928;2023-02-26T09:41:27;2.92;;;1.10;;
5343;SDS011;2694;48.954;8.928;2023-02-26T09:44:11;1.63;;;0.67;;
5343;SDS011;2694;48.954;8.928;2023-02-26T09:46:45;2.58;;;0.90;;
5343;SDS011;2694;48.954;8.928;2023-02-26T09:49:27;2.63;;;0.60;;
5343;SDS011;2694;48.954;8.928;2023-02-26T09:52:02;2.55;;;1.00;;
5343;SDS011;2694;48.954;8.928;2023-02-26T09:54:39;3.55;;;1.10;;
5343;SDS011;2694;48.954;8.928;2023-02-26T09:57:11;4.60;;;1.20;;
5343;SDS011;2694;48.954;8.928;2023-02-26T09:59:45;2.50;;;0.90;;
5343;SDS011;2694;48.954;8.928;2023-02-26T10:02:15;4.90;;;1.00;;
5343;SDS011;2694;48.954;8.928;2023-02-26T10:04:50;2.20;;;0.90;;
5343;SDS011;2694;48.954;8.928;2023-02-26T10:07:27;3.10;;;1.23;;
5343;SDS011;2694;48.954;8.928;2023-02-26T10:10:06;3.20;;;0.80;;
5343;SDS011;2694;48.954;8.928;2023-02-26T10:12:40;1.90;;;0.70;;
5343;SDS011;2694;48.954;8.928;2023-02-26T10:15:10;1.10;;;0.60;;
5343;SDS011;2694;48.954;8.928;2023-02-26T10:17:44;2.58;;;0.90;;
5343;SDS011;2694;48.954;8.928;2023-02-26T10:20:19;2.58;;;0.68;;
5343;SDS011;2694;48.954;8.928;2023-02-26T10:22:54;1.75;;;0.70;;
5343;SDS011;2694;48.954;8.928;2023-02-26T10:25:25;2.78;;;1.00;;
5343;SDS011;2694;48.954;8.928;2023-02-26T10:27:59;4.00;;;0.80;;
5343;SDS011;2694;48.954;8.928;2023-02-26T10:30:38;2.60;;;0.80;;
5343;SDS011;2694;48.954;8.928;2023-02-26T10:33:13;3.75;;;0.80;;
5343;SDS011;2694;48.954;8.928;2023-02-26T10:35:46;2.35;;;0.70;;
5343;SDS011;2694;48.954;8.928;2023-02-26T10:38:18;3.70;;;0.90;;
5343;SDS011;2694;48.954;8.928;2023-02-26T10:40:49;2.90;;;0.70;;
5343;SDS011;2694;48.954;8.928;2023-02-26T10:43:19;2.97;;;0.70;;
5343;SDS011;2694;48.954;8.928;2023-02-26T10:45:56;2.47;;;0.75;;
5343;SDS011;2694;48.954;8.928;2023-02-26T10:48:45;3.35;;;1.77;;
5343;SDS011;2694;48.954;8.928;2023-02-26T10:51:21;1.27;;;0.55;;
5343;SDS011;2694;48.954;8.928;2023-02-26T10:53:55;2.00;;;0.60;;
5343;SDS011;2694;48.954;8.928;2023-02-26T10:56:25;1.40;;;1.10;;
5343;SDS011;2694;48.954;8.928;2023-02-26T10:58:55;1.30;;;0.70;;
5343;SDS011;2694;48.954;8.928;2023-02-26T11:01:23;1.50;;;0.40;;
5343;SDS011;2694;48.954;8.928;2023-02-26T11:03:55;1.02;;;0.50;;
5343;SDS011;2694;48.954;8.928;2023-02-26T11:06:26;1.55;;;0.65;;
5343;SDS011;2694;48.954;8.928;2023-02-26T11:08:56;1.65;;;0.60;;
5343;SDS011;2694;48.954;8.928;2023-02-26T11:11:36;1.60;;;0.50;;
5343;SDS011;2694;48.954;8.928;2023-02-26T11:14:08;1.77;;;0.52;;
5343;SDS011;2694;48.954;8.928;2023-02-26T11:16:40;0.90;;;0.60;;
5343;SDS011;2694;48.954;8.928;2023-02-26T11:19:12;3.35;;;0.90;;
5343;SDS011;2694;48.954;8.928;2023-02-26T11:21:40;1.70;;;0.50;;
5343;SDS011;2694;48.954;8.928;2023-02-26T11:24:10;1.42;;;0.60;;
5343;SDS011;2694;48.954;8.928;2023-02-26T11:26:43;1.67;;;0.73;;
5343;SDS011;2694;48.954;8.928;2023-02-26T11:29:13;0.73;;;0.60;;
5343;SDS011;2694;48.954;8.928;2023-02-26T11:31:44;1.23;;;0.60;;
5343;SDS011;2694;48.954;8.928;2023-02-26T11:34:15;1.60;;;0.40;;
5343;SDS011;2694;48.954;8.928;2023-02-26T11:36:47;1.10;;;0.50;;
5343;SDS011;2694;48.954;8.928;2023-02-26T11:39:15;3.90;;;1.73;;
5343;SDS011;2694;48.954;8.928;2023-02-26T11:41:44;2.73;;;0.53;;
5343;SDS011;2694;48.954;8.928;2023-02-26T11:44:15;0.80;;;0.60;;
5343;SDS011;2694;48.954;8.928;2023-02-26T11:46:48;1.45;;;0.50;;
5343;SDS011;2694;48.954;8.928;2023-02-26T11:49:20;2.90;;;0.70;;
5343;SDS011;2694;48.954;8.928;2023-02-26T11:51:59;1.07;;;0.50;;
5343;SDS011;2694;48.954;8.928;2023-02-26T11:54:41;1.50;;;0.52;;
5343;SDS011;2694;48.954;8.928;2023-02-26T11:57:14;1.10;;;0.50;;
5343;SDS011;2694;48.954;8.928;2023-02-26T11:59:43;1.00;;;0.40;;
5343;SDS011;2694;48.954;8.928;2023-02-26T12:02:13;1.08;;;0.40;;
5343;SDS011;2694;48.954;8.928;2023-02-26T12:04:46;0.97;;;0.50;;
5343;SDS011;2694;48.954;8.928;2023-02-26T12:07:15;0.70;;;0.43;;
5343;SDS011;2694;48.954;8.928;2023-02-26T12:09:43;1.50;;;0.50;;
5343;SDS011;2694;48.954;8.928;2023-02-26T12:12:15;1.40;;;0.50;;
5343;SDS011;2694;48.954;8.928;2023-02-26T12:15:00;0.93;;;0.60;;
5343;SDS011;2694;48.954;8.928;2023-02-26T12:17:41;0.70;;;0.50;;
5343;SDS011;2694;48.954;8.928;2023-02-26T12:20:23;1.08;;;0.40;;
5343;SDS011;2694;48.954;8.928;2023-02-26T12:23:01;0.75;;;0.45;;
5343;SDS011;2694;48.954;8.928;2023-02-26T12:26:04;0.70;;;0.50;;
5343;SDS011;2694;48.954;8.928;2023-02-26T12:28:59;3.45;;;0.50;;
5343;SDS011;2694;48.954;8.928;2023-02-26T12:32:07;1.60;;;0.50;;
5343;SDS011;2694;48.954;8.928;2023-02-26T12:34:59;1.60;;;0.70;;
5343;SDS011;2694;48.954;8.928;2023-02-26T12:37:45;1.95;;;0.40;;
5343;SDS011;2694;48.954;8.928;2023-02-26T12:40:36;3.33;;;0.80;;
5343;SDS011;2694;48.954;8.928;2023-02-26T12:43:14;2.28;;;0.60;;
5343;SDS011;2694;48.954;8.928;2023-02-26T12:45:46;0.73;;;0.40;;
5343;SDS011;2694;48.954;8.928;2023-02-26T12:51:21;0.90;;;0.50;;
5343;SDS011;2694;48.954;8.928;2023-02-26T12:54:08;2.40;;;0.50;;
5343;SDS011;2694;48.954;8.928;2023-02-26T12:56:55;3.17;;;0.52;;
5343;SDS011;2694;48.954;8.928;2023-02-26T12:59:40;0.90;;;0.50;;
5343;SDS011;2694;48.954;8.928;2023-02-26T13:02:35;1.30;;;0.30;;
5343;SDS011;2694;48.954;8.928;2023-02-26T13:05:19;1.98;;;0.50;;
5343;SDS011;2694;48.954;8.928;2023-02-26T13:07:59;0.80;;;0.40;;
5343;SDS011;2694;48.954;8.928;2023-02-26T13:10:40;1.27;;;0.50;;
5343;SDS011;2694;48.954;8.928;2023-02-26T13:13:25;0.70;;;0.50;;
5343;SDS011;2694;48.954;8.928;2023-02-26T13:16:05;0.80;;;0.60;;
5343;SDS011;2694;48.954;8.928;2023-02-26T13:18:42;0.70;;;0.50;;
5343;SDS011;2694;48.954;8.928;2023-02-26T13:21:15;1.20;;;0.60;;
5343;SDS011;2694;48.954;8.928;2023-02-26T13:23:48;1.75;;;0.60;;
5343;SDS011;2694;48.954;8.928;2023-02-26T13:26:19;1.55;;;0.50;;
5343;SDS011;2694;48.954;8.928;2023-02-26T13:28:47;1.48;;;0.60;;
5343;SDS011;2694;48.954;8.928;2023-02-26T13:31:20;1.17;;;0.60;;
5343;SDS011;2694;48.954;8.928;2023-02-26T13:33:51;1.67;;;0.70;;
5343;SDS011;2694;48.954;8.928;2023-02-26T13:36:21;0.90;;;0.50;;
5343;SDS011;2694;48.954;8.928;2023-02-26T13:38:54;1.10;;;0.50;;
5343;SDS011;2694;48.954;8.928;2023-02-26T13:41:33;2.10;;;0.73;;
5343;SDS011;2694;48.954;8.928;2023-02-26T13:44:16;0.95;;;0.40;;
5343;SDS011;2694;48.954;8.928;2023-02-26T13:46:55;1.90;;;0.40;;
5343;SDS011;2694;48.954;8.928;2023-02-26T13:49:38;0.77;;;0.40;;
5343;SDS011;2694;48.954;8.928;2023-02-26T13:52:22;1.10;;;0.35;;
5343;SDS011;2694;48.954;8.928;2023-02-26T13:54:50;0.77;;;0.40;;
5343;SDS011;2694;48.954;8.928;2023-02-26T13:57:24;0.98;;;0.40;;
5343;SDS011;2694;48.954;8.928;2023-02-26T13:59:59;0.60;;;0.32;;
5343;SDS011;2694;48.954;8.928;2023-02-26T14:02:46;0.60;;;0.30;;
5343;SDS011;2694;48.954;8.928;2023-02-26T14:08:26;0.50;;;0.40;;
5343;SDS011;2694;48.954;8.928;2023-02-26T14:11:36;0.82;;;0.43;;
5343;SDS011;2694;48.954;8.928;2023-02-26T14:14:15;1.27;;;0.40;;
5343;SDS011;2694;48.954;8.928;2023-02-26T14:16:47;0.70;;;0.50;;
5343;SDS011;2694;48.954;8.928;2023-02-26T14:19:19;0.70;;;0.40;;
5343;SDS011;2694;48.954;8.928;2023-02-26T14:21:49;0.80;;;0.50;;
5343;SDS011;2694;48.954;8.928;2023-02-26T14:24:18;0.80;;;0.60;;
5343;SDS011;2694;48.954;8.928;2023-02-26T14:26:49;2.53;;;1.08;;
5343;SDS011;2694;48.954;8.928;2023-02-26T14:29:38;2.05;;;0.47;;
5343;SDS011;2694;48.954;8.928;2023-02-26T14:32:14;1.00;;;0.50;;
5343;SDS011;2694;48.954;8.928;2023-02-26T14:34:51;1.60;;;0.40;;
5343;SDS011;2694;48.954;8.928;2023-02-26T14:37:22;0.70;;;0.50;;
5343;SDS011;2694;48.954;8.928;2023-02-26T14:39:53;1.10;;;0.50;;
5343;SDS011;2694;48.954;8.928;2023-02-26T14:42:25;1.20;;;0.40;;
5343;SDS011;2694;48.954;8.928;2023-02-26T14:45:02;0.95;;;0.40;;
5343;SDS011;2694;48.954;8.928;2023-02-26T14:47:35;1.02;;;0.40;;
5343;SDS011;2694;48.954;8.928;2023-02-26T14:50:04;2.05;;;0.60;;
5343;SDS011;2694;48.954;8.928;2023-02-26T14:55:45;0.73;;;0.32;;
5343;SDS011;2694;48.954;8.928;2023-02-26T15:01:13;1.20;;;0.50;;
5343;SDS011;2694;48.954;8.928;2023-02-26T15:06:49;1.00;;;0.40;;
5343;SDS011;2694;48.954;8.928;2023-02-26T15:09:26;1.52;;;0.60;;
5343;SDS011;2694;48.954;8.928;2023-02-26T15:12:11;2.13;;;0.40;;
5343;SDS011;2694;48.954;8.928;2023-02-26T15:14:56;1.30;;;0.38;;
5343;SDS011;2694;48.954;8.928;2023-02-26T15:17:40;1.08;;;0.55;;
5343;SDS011;2694;48.954;8.928;2023-02-26T15:20:17;0.80;;;0.50;;
5343;SDS011;2694;48.954;8.928;2023-02-26T15:22:55;1.60;;;0.50;;
5343;SDS011;2694;48.954;8.928;2023-02-26T15:25:37;1.00;;;0.60;;
5343;SDS011;2694;48.954;8.928;2023-02-26T15:28:09;1.10;;;0.50;;
5343;SDS011;2694;48.954;8.928;2023-02-26T15:30:38;0.83;;;0.40;;
5343;SDS011;2694;48.954;8.928;2023-02-26T15:33:11;1.50;;;0.50;;
5343;SDS011;2694;48.954;8.928;2023-02-26T15:35:41;1.60;;;0.50;;
5343;SDS011;2694;48.954;8.928;2023-02-26T15:38:09;0.90;;;0.47;;
5343;SDS011;2694;48.954;8.928;2023-02-26T15:40:36;1.60;;;0.43;;
5343;SDS011;2694;48.954;8.928;2023-02-26T15:43:04;1.00;;;0.60;;
5343;SDS011;2694;48.954;8.928;2023-02-26T15:45:35;1.10;;;0.60;;
5343;SDS011;2694;48.954;8.928;2023-02-26T15:48:04;0.50;;;0.30;;
5343;SDS011;2694;48.954;8.928;2023-02-26T15:50:35;1.47;;;0.50;;
5343;SDS011;2694;48.954;8.928;2023-02-26T15:53:06;1.30;;;0.40;;
5343;SDS011;2694;48.954;8.928;2023-02-26T15:55:35;1.97;;;0.50;;
5343;SDS011;2694;48.954;8.928;2023-02-26T15:58:04;0.90;;;0.50;;
5343;SDS011;2694;48.954;8.928;2023-02-26T16:00:34;0.98;;;0.52;;